createdAt,value
2022-10-29T00:02:30.679Z,13.66
2022-10-29T00:05:36.195Z,13.64
2022-10-29T00:08:42.574Z,13.65
2022-10-29T00:11:46.231Z,13.66
2022-10-29T00:14:49.868Z,13.67
2022-10-29T00:17:53.792Z,13.66
2022-10-29T00:21:04.099Z,13.62
2022-10-29T00:24:10.717Z,13.58
2022-10-29T00:27:14.327Z,13.57
2022-10-29T00:30:19.047Z,13.60
2022-10-29T00:33:22.781Z,13.61
2022-10-29T00:36:31.024Z,13.64
2022-10-29T00:39:34.631Z,13.66
2022-10-29T00:42:38.302Z,13.69
2022-10-29T00:45:47.884Z,13.70
2022-10-29T00:48:56.100Z,13.71
2022-10-29T00:52:04.298Z,13.72
2022-10-29T00:55:11.882Z,13.74
2022-10-29T00:58:15.985Z,13.79
2022-10-29T01:01:20.150Z,13.79
2022-10-29T01:04:25.653Z,13.80
2022-10-29T01:07:31.349Z,13.81
2022-10-29T01:10:54.940Z,13.83
2022-10-29T01:14:13.162Z,13.84
2022-10-29T01:17:28.718Z,13.85
2022-10-29T01:21:43.794Z,13.87
2022-10-29T01:25:31.419Z,13.89
2022-10-29T01:29:01.287Z,13.88
2022-10-29T01:32:14.878Z,13.89
2022-10-29T01:35:28.950Z,13.92
2022-10-29T01:38:42.040Z,13.90
2022-10-29T01:42:01.058Z,13.92
2022-10-29T01:45:17.795Z,13.93
2022-10-29T01:48:33.230Z,13.86
2022-10-29T01:51:40.656Z,13.79
2022-10-29T01:54:46.223Z,13.72
2022-10-29T01:57:50.425Z,13.65
2022-10-29T02:01:14.713Z,13.61
2022-10-29T02:04:54.786Z,13.55
2022-10-29T02:08:15.045Z,13.49
2022-10-29T02:11:27.098Z,13.38
2022-10-29T02:14:39.581Z,13.29
2022-10-29T02:17:43.466Z,13.18
2022-10-29T02:20:49.067Z,13.09
2022-10-29T02:23:53.082Z,12.96
2022-10-29T02:26:56.647Z,12.95
2022-10-29T02:30:00.234Z,12.83
2022-10-29T02:33:03.854Z,12.72
2022-10-29T02:36:10.377Z,12.63
2022-10-29T02:39:13.942Z,12.52
2022-10-29T02:42:18.187Z,12.39
2022-10-29T02:45:21.844Z,12.35
2022-10-29T02:48:25.391Z,12.32
2022-10-29T02:51:30.343Z,12.26
2022-10-29T02:54:34.011Z,12.22
2022-10-29T02:57:37.731Z,12.19
2022-10-29T03:00:41.268Z,12.18
2022-10-29T03:03:44.876Z,12.13
2022-10-29T03:06:49.806Z,12.09
2022-10-29T03:09:53.521Z,12.10
2022-10-29T03:13:00.174Z,12.07
2022-10-29T03:16:03.902Z,12.00
2022-10-29T03:19:07.682Z,11.93
2022-10-29T03:22:12.662Z,11.89
2022-10-29T03:25:16.441Z,11.81
2022-10-29T03:28:20.250Z,11.77
2022-10-29T03:31:23.809Z,11.64
2022-10-29T03:34:27.469Z,11.57
2022-10-29T03:37:32.387Z,11.53
2022-10-29T03:40:36.211Z,11.55
2022-10-29T03:43:40.987Z,11.46
2022-10-29T03:46:44.681Z,11.32
2022-10-29T03:49:48.388Z,11.28
2022-10-29T03:52:53.509Z,11.20
2022-10-29T03:55:58.507Z,11.12
2022-10-29T03:59:02.135Z,11.06
2022-10-29T04:02:05.917Z,11.03
2022-10-29T04:05:10.504Z,10.96
2022-10-29T04:08:15.470Z,10.92
2022-10-29T04:11:19.278Z,10.85
2022-10-29T04:14:22.866Z,10.81
2022-10-29T04:17:26.525Z,10.79
2022-10-29T04:21:03.086Z,10.71
2022-10-29T04:27:01.806Z,10.65
2022-10-29T04:30:42.485Z,10.61
2022-10-29T04:33:46.436Z,10.55
2022-10-29T04:36:50.097Z,10.53
2022-10-29T04:39:55.066Z,10.49
2022-10-29T04:42:58.846Z,10.45
2022-10-29T04:46:02.827Z,10.42
2022-10-29T04:49:07.238Z,10.39
2022-10-29T04:52:11.049Z,10.36
2022-10-29T04:55:16.234Z,10.30
2022-10-29T04:58:21.339Z,10.14
2022-10-29T05:01:25.220Z,10.07
2022-10-29T05:04:29.605Z,10.02
2022-10-29T05:07:33.270Z,10.10
2022-10-29T05:10:40.978Z,10.05
2022-10-29T05:13:45.483Z,9.98
2022-10-29T05:16:49.056Z,9.95
2022-10-29T05:19:52.605Z,9.95
2022-10-29T05:23:01.471Z,9.92
2022-10-29T05:26:06.569Z,9.90
2022-10-29T05:29:10.167Z,9.88
2022-10-29T05:32:13.705Z,9.88
2022-10-29T05:35:17.662Z,9.88
2022-10-29T05:38:21.692Z,9.87
2022-10-29T05:41:26.695Z,9.86
2022-10-29T05:44:30.275Z,9.82
2022-10-29T05:47:33.989Z,9.78
2022-10-29T05:50:37.793Z,9.73
2022-10-29T05:53:41.381Z,9.69
2022-10-29T05:56:46.376Z,9.67
2022-10-29T05:59:50.054Z,9.63
2022-10-29T06:02:54.107Z,9.56
2022-10-29T06:05:57.964Z,9.57
2022-10-29T06:09:01.650Z,9.46
2022-10-29T06:12:07.927Z,9.51
2022-10-29T06:15:22.821Z,9.52
2022-10-29T06:18:26.661Z,9.42
2022-10-29T06:21:30.187Z,9.39
2022-10-29T06:24:33.876Z,9.43
2022-10-29T06:27:38.849Z,9.39
2022-10-29T06:30:47.188Z,9.28
2022-10-29T06:33:50.762Z,9.28
2022-10-29T06:36:54.351Z,9.26
2022-10-29T06:39:57.929Z,9.23
2022-10-29T06:43:04.798Z,9.20
2022-10-29T06:46:09.023Z,9.29
2022-10-29T06:49:12.615Z,9.39
2022-10-29T06:52:16.194Z,9.43
2022-10-29T06:55:19.810Z,9.42
2022-10-29T06:58:25.288Z,9.46
2022-10-29T07:01:31.740Z,9.47
2022-10-29T07:04:35.748Z,9.55
2022-10-29T07:07:39.414Z,9.66
2022-10-29T07:10:43.135Z,9.72
2022-10-29T07:13:48.150Z,9.78
2022-10-29T07:16:51.723Z,9.82
2022-10-29T07:19:55.492Z,9.89
2022-10-29T07:23:00.394Z,9.93
2022-10-29T07:26:04.192Z,9.93
2022-10-29T07:29:09.223Z,9.96
2022-10-29T07:32:14.631Z,9.94
2022-10-29T07:35:18.381Z,9.98
2022-10-29T07:38:22.126Z,9.96
2022-10-29T07:41:25.781Z,10.05
2022-10-29T07:44:34.477Z,10.21
2022-10-29T07:47:38.157Z,10.36
2022-10-29T07:50:41.775Z,10.56
2022-10-29T07:53:45.460Z,10.75
2022-10-29T07:56:49.165Z,10.79
2022-10-29T07:59:54.194Z,10.84
2022-10-29T08:02:58.520Z,11.04
2022-10-29T08:06:02.062Z,11.24
2022-10-29T08:09:05.826Z,11.48
2022-10-29T08:12:12.062Z,11.33
2022-10-29T08:15:33.093Z,11.49
2022-10-29T08:18:36.709Z,11.50
2022-10-29T08:21:40.325Z,11.47
2022-10-29T08:24:43.885Z,11.59
2022-10-29T08:27:58.617Z,11.69
2022-10-29T08:31:03.606Z,11.65
2022-10-29T08:34:11.058Z,11.68
2022-10-29T08:37:14.988Z,11.76
2022-10-29T08:40:30.936Z,11.81
2022-10-29T08:44:04.706Z,11.96
2022-10-29T08:47:20.520Z,12.00
2022-10-29T08:50:30.843Z,12.16
2022-10-29T08:53:40.662Z,12.22
2022-10-29T08:56:51.090Z,12.36
2022-10-29T09:00:05.668Z,12.39
2022-10-29T09:03:14.071Z,12.45
2022-10-29T09:06:28.148Z,12.59
2022-10-29T09:09:40.173Z,12.78
2022-10-29T09:13:13.092Z,12.86
2022-10-29T09:16:35.455Z,12.99
2022-10-29T09:20:02.265Z,13.15
2022-10-29T09:23:18.914Z,13.29
2022-10-29T09:26:32.534Z,13.32
2022-10-29T09:29:59.457Z,13.45
2022-10-29T09:33:11.435Z,13.62
2022-10-29T09:36:21.166Z,13.53
2022-10-29T09:39:34.397Z,13.59
2022-10-29T09:42:43.775Z,13.88
2022-10-29T09:45:54.908Z,14.06
2022-10-29T09:49:12.031Z,14.18
2022-10-29T09:52:21.742Z,14.30
2022-10-29T09:55:28.929Z,14.37
2022-10-29T09:58:32.466Z,14.22
2022-10-29T10:01:36.702Z,14.33
2022-10-29T10:04:49.000Z,14.48
2022-10-29T10:08:11.701Z,14.63
2022-10-29T10:11:21.231Z,14.51
2022-10-29T10:14:27.496Z,14.52
2022-10-29T10:17:56.582Z,14.52
2022-10-29T10:21:09.517Z,14.78
2022-10-29T10:24:32.728Z,14.70
2022-10-29T10:27:36.294Z,14.96
2022-10-29T10:30:40.071Z,15.03
2022-10-29T10:33:52.657Z,15.19
2022-10-29T10:37:03.657Z,15.32
2022-10-29T10:40:23.296Z,15.40
2022-10-29T10:43:28.099Z,15.53
2022-10-29T10:46:36.720Z,15.76
2022-10-29T10:49:40.906Z,15.85
2022-10-29T10:52:45.994Z,16.06
2022-10-29T10:55:55.114Z,16.03
2022-10-29T10:59:08.926Z,16.24
2022-10-29T11:02:28.413Z,16.51
2022-10-29T11:05:38.582Z,16.61
2022-10-29T11:08:50.766Z,16.43
2022-10-29T11:12:04.336Z,16.44
2022-10-29T11:15:19.128Z,16.52
2022-10-29T11:18:35.052Z,16.61
2022-10-29T11:21:46.148Z,16.52
2022-10-29T11:25:00.401Z,16.57
2022-10-29T11:28:21.496Z,16.76
2022-10-29T11:31:38.291Z,16.84
2022-10-29T11:34:54.774Z,16.88
2022-10-29T11:38:05.878Z,16.98
2022-10-29T11:41:27.620Z,16.84
2022-10-29T11:44:40.817Z,17.01
2022-10-29T11:48:10.419Z,17.22
2022-10-29T11:51:29.152Z,17.11
2022-10-29T11:54:50.094Z,17.04
2022-10-29T11:58:02.882Z,17.00
2022-10-29T12:01:21.215Z,17.03
2022-10-29T12:04:33.895Z,16.98
2022-10-29T12:07:55.826Z,17.38
2022-10-29T12:11:09.892Z,17.41
2022-10-29T12:14:28.311Z,17.50
2022-10-29T12:17:42.543Z,17.55
2022-10-29T12:20:55.545Z,17.53
2022-10-29T12:24:16.755Z,17.51
2022-10-29T12:27:32.522Z,17.45
2022-10-29T12:30:46.203Z,17.40
2022-10-29T12:34:02.466Z,17.48
2022-10-29T12:37:19.775Z,17.42
2022-10-29T12:40:29.470Z,17.67
2022-10-29T12:43:37.740Z,17.77
2022-10-29T12:46:50.387Z,18.13
2022-10-29T12:50:11.165Z,18.34
2022-10-29T12:53:30.847Z,18.35
2022-10-29T12:56:35.315Z,18.32
2022-10-29T12:59:39.485Z,18.33
2022-10-29T13:02:46.296Z,17.95
2022-10-29T13:05:51.429Z,17.97
2022-10-29T13:08:58.116Z,18.12
2022-10-29T13:12:03.762Z,18.06
2022-10-29T13:15:15.620Z,18.03
2022-10-29T13:18:28.089Z,17.93
2022-10-29T13:22:09.731Z,18.16
2022-10-29T13:25:46.386Z,18.25
2022-10-29T13:28:54.134Z,18.26
2022-10-29T13:32:03.642Z,18.29
2022-10-29T13:35:43.076Z,18.14
2022-10-29T13:39:07.365Z,18.09
2022-10-29T13:42:14.531Z,18.08
2022-10-29T13:45:30.378Z,18.13
2022-10-29T13:48:38.182Z,18.15
2022-10-29T13:52:00.542Z,18.22
2022-10-29T13:55:09.966Z,18.13
2022-10-29T13:58:21.603Z,18.15
2022-10-29T14:01:28.690Z,18.19
2022-10-29T14:04:40.486Z,18.10
2022-10-29T14:07:56.146Z,18.11
2022-10-29T14:11:10.910Z,18.13
2022-10-29T14:14:34.028Z,18.04
2022-10-29T14:17:37.987Z,17.83
2022-10-29T14:20:41.596Z,17.82
2022-10-29T14:23:58.690Z,17.74
2022-10-29T14:27:10.450Z,17.72
2022-10-29T14:30:20.135Z,17.72
2022-10-29T14:33:27.092Z,17.76
2022-10-29T14:36:38.027Z,17.74
2022-10-29T14:39:57.863Z,17.76
2022-10-29T14:43:03.789Z,17.71
2022-10-29T14:46:26.626Z,17.61
2022-10-29T14:49:32.323Z,17.59
2022-10-29T14:52:43.742Z,17.59
2022-10-29T14:55:50.854Z,17.58
2022-10-29T14:58:56.449Z,17.56
2022-10-29T15:02:32.279Z,17.56
2022-10-29T15:05:31.695Z,17.50
2022-10-29T15:08:41.075Z,17.49
2022-10-29T15:11:59.623Z,17.43
2022-10-29T15:15:22.096Z,17.44
2022-10-29T15:18:27.516Z,17.31
2022-10-29T15:21:34.499Z,17.31
2022-10-29T15:24:38.540Z,17.26
2022-10-29T15:27:42.729Z,17.18
2022-10-29T15:30:47.747Z,17.15
2022-10-29T15:33:54.785Z,17.08
2022-10-29T15:37:00.208Z,17.02
2022-10-29T15:40:12.239Z,17.01
2022-10-29T15:43:31.357Z,16.84
2022-10-29T15:46:51.137Z,16.74
2022-10-29T15:49:54.775Z,16.64
2022-10-29T15:53:01.959Z,16.56
2022-10-29T15:56:06.834Z,16.48
2022-10-29T15:59:14.795Z,16.37
2022-10-29T16:02:20.045Z,16.32
2022-10-29T16:05:23.784Z,16.28
2022-10-29T16:08:31.205Z,16.21
2022-10-29T16:11:36.444Z,16.08
2022-10-29T16:14:40.107Z,15.97
2022-10-29T16:17:45.217Z,15.88
2022-10-29T16:20:50.163Z,15.76
2022-10-29T16:23:55.211Z,15.67
2022-10-29T16:26:58.838Z,15.66
2022-10-29T16:30:02.460Z,15.57
2022-10-29T16:33:07.918Z,15.55
2022-10-29T16:36:11.933Z,15.55
2022-10-29T16:39:15.511Z,15.53
2022-10-29T16:42:36.993Z,15.50
2022-10-29T16:45:40.796Z,15.47
2022-10-29T16:48:45.762Z,15.44
2022-10-29T16:51:49.364Z,15.40
2022-10-29T16:54:52.923Z,15.38
2022-10-29T16:57:57.123Z,15.30
2022-10-29T17:01:06.669Z,15.22
2022-10-29T17:04:11.808Z,15.21
2022-10-29T17:07:15.420Z,15.19
2022-10-29T17:10:19.403Z,15.18
2022-10-29T17:13:23.018Z,15.18
2022-10-29T17:16:26.663Z,15.18
2022-10-29T17:19:31.810Z,15.22
2022-10-29T17:22:35.499Z,15.19
2022-10-29T17:25:41.719Z,15.15
2022-10-29T17:28:45.621Z,15.20
2022-10-29T17:31:49.927Z,15.25
2022-10-29T17:34:54.947Z,15.20
2022-10-29T17:37:58.543Z,15.16
2022-10-29T17:41:02.258Z,15.13
2022-10-29T17:44:06.263Z,15.06
2022-10-29T17:47:11.179Z,15.01
2022-10-29T17:50:16.401Z,15.00
2022-10-29T17:53:20.948Z,15.00
2022-10-29T17:56:26.019Z,14.97
2022-10-29T17:59:29.937Z,14.91
2022-10-29T18:02:33.633Z,14.95
2022-10-29T18:05:39.465Z,14.92
2022-10-29T18:08:46.546Z,14.94
2022-10-29T18:11:50.860Z,14.89
2022-10-29T18:14:54.574Z,14.86
2022-10-29T18:18:01.203Z,14.92
2022-10-29T18:21:08.430Z,14.90
2022-10-29T18:24:12.571Z,14.82
2022-10-29T18:27:16.246Z,14.76
2022-10-29T18:30:22.827Z,14.75
2022-10-29T18:33:27.384Z,14.77
2022-10-29T18:36:33.009Z,14.77
2022-10-29T18:39:36.573Z,14.70
2022-10-29T18:42:40.253Z,14.68
2022-10-29T18:45:43.906Z,14.62
2022-10-29T18:48:49.895Z,14.57
2022-10-29T18:51:56.314Z,14.53
2022-10-29T18:54:59.964Z,14.47
2022-10-29T18:58:03.665Z,14.44
2022-10-29T19:01:10.333Z,14.40
2022-10-29T19:04:16.960Z,14.34
2022-10-29T19:07:21.952Z,14.26
2022-10-29T19:10:25.689Z,14.26
2022-10-29T19:13:29.221Z,14.16
2022-10-29T19:16:34.241Z,14.07
2022-10-29T19:19:37.810Z,14.04
2022-10-29T19:22:43.086Z,13.99
2022-10-29T19:25:46.609Z,13.94
2022-10-29T19:28:50.268Z,13.87
2022-10-29T19:31:53.865Z,13.86
2022-10-29T19:34:57.384Z,13.81
2022-10-29T19:38:02.499Z,13.82
2022-10-29T19:41:07.551Z,13.71
2022-10-29T19:44:11.260Z,13.71
2022-10-29T19:47:15.914Z,13.64
2022-10-29T19:50:19.772Z,13.65
2022-10-29T19:53:25.079Z,13.56
2022-10-29T19:56:29.009Z,13.52
2022-10-29T19:59:32.603Z,13.50
2022-10-29T20:02:36.398Z,13.48
2022-10-29T20:05:40.724Z,13.43
2022-10-29T20:08:46.082Z,13.44
2022-10-29T20:11:49.791Z,13.37
2022-10-29T20:14:53.515Z,13.39
2022-10-29T20:17:57.487Z,13.35
2022-10-29T20:21:01.500Z,13.30
2022-10-29T20:24:07.321Z,13.29
2022-10-29T20:27:12.166Z,13.24
2022-10-29T20:30:15.855Z,13.22
2022-10-29T20:33:19.587Z,13.31
2022-10-29T20:36:25.290Z,13.21
2022-10-29T20:39:33.274Z,13.21
2022-10-29T20:42:37.217Z,13.19
2022-10-29T20:45:40.846Z,13.17
2022-10-29T20:48:44.402Z,13.22
2022-10-29T20:51:48.017Z,13.14
2022-10-29T20:54:52.976Z,13.09
2022-10-29T20:57:56.881Z,13.10
2022-10-29T21:01:07.507Z,13.04
2022-10-29T21:04:11.222Z,12.98
2022-10-29T21:07:14.934Z,13.00
2022-10-29T21:10:20.249Z,13.03
2022-10-29T21:13:23.810Z,13.06
2022-10-29T21:16:29.362Z,13.07
2022-10-29T21:19:33.193Z,13.08
2022-10-29T21:22:36.662Z,13.12
2022-10-29T21:25:41.602Z,13.07
2022-10-29T21:28:45.783Z,13.04
2022-10-29T21:31:49.996Z,13.03
2022-10-29T21:34:53.606Z,13.03
2022-10-29T21:37:57.385Z,13.04
2022-10-29T21:41:03.177Z,12.99
2022-10-29T21:44:06.990Z,13.01
2022-10-29T21:47:10.766Z,12.99
2022-10-29T21:50:14.309Z,13.01
2022-10-29T21:53:17.917Z,12.99
2022-10-29T21:56:23.170Z,13.01
2022-10-29T21:59:26.755Z,13.03
2022-10-29T22:02:30.406Z,12.98
2022-10-29T22:05:34.085Z,12.96
2022-10-29T22:08:37.906Z,12.99
2022-10-29T22:11:43.339Z,12.98
2022-10-29T22:14:47.680Z,12.96
2022-10-29T22:17:51.301Z,12.96
2022-10-29T22:21:05.831Z,12.99
2022-10-29T22:24:11.165Z,12.97
2022-10-29T22:27:16.294Z,12.96
2022-10-29T22:30:19.804Z,12.98
2022-10-29T22:33:23.442Z,12.95
2022-10-29T22:36:28.665Z,12.92
2022-10-29T22:39:32.194Z,12.86
2022-10-29T22:42:37.140Z,12.80
2022-10-29T22:45:40.839Z,12.77
2022-10-29T22:48:45.163Z,12.72
2022-10-29T22:51:48.697Z,12.64
2022-10-29T22:54:52.315Z,12.59
2022-10-29T22:57:58.795Z,12.50
2022-10-29T23:01:05.805Z,12.47
2022-10-29T23:04:09.398Z,12.44
2022-10-29T23:07:13.002Z,12.43
2022-10-29T23:10:16.763Z,12.36
2022-10-29T23:13:22.256Z,12.29
2022-10-29T23:16:28.088Z,12.24
2022-10-29T23:19:31.699Z,12.17
2022-10-29T23:22:35.397Z,12.10
2022-10-29T23:25:42.420Z,12.01
2022-10-29T23:28:49.003Z,11.96
2022-10-29T23:31:52.628Z,11.93
2022-10-29T23:34:56.293Z,11.92
2022-10-29T23:38:00.384Z,11.90
2022-10-29T23:41:05.026Z,11.95
2022-10-29T23:44:09.958Z,12.07
2022-10-29T23:47:13.678Z,12.14
2022-10-29T23:50:17.511Z,12.20
2022-10-29T23:53:21.395Z,12.31
2022-10-29T23:56:25.018Z,12.37
2022-10-29T23:59:30.203Z,12.41
